createdAt,value
2023-01-25T00:00:07.755Z,-0.51
2023-01-25T00:02:35.511Z,-0.50
2023-01-25T00:05:03.131Z,-0.52
2023-01-25T00:07:30.693Z,-0.51
2023-01-25T00:09:58.318Z,-0.51
2023-01-25T00:12:27.256Z,-0.51
2023-01-25T00:14:54.811Z,-0.51
2023-01-25T00:17:22.522Z,-0.50
2023-01-25T00:19:50.227Z,-0.50
2023-01-25T00:22:17.786Z,-0.48
2023-01-25T00:24:45.317Z,-0.50
2023-01-25T00:27:12.824Z,-0.51
2023-01-25T00:29:41.803Z,-0.51
2023-01-25T00:32:34.288Z,-0.50
2023-01-25T00:35:01.896Z,-0.51
2023-01-25T00:37:38.302Z,-0.51
2023-01-25T00:40:07.211Z,-0.49
2023-01-25T00:42:34.765Z,-0.51
2023-01-25T00:45:03.690Z,-0.49
2023-01-25T00:47:31.286Z,-0.50
2023-01-25T00:49:58.865Z,-0.51
2023-01-25T00:52:27.667Z,-0.50
2023-01-25T00:54:55.416Z,-0.50
2023-01-25T00:57:23.445Z,-0.50
2023-01-25T00:59:51.095Z,-0.50
2023-01-25T01:02:20.145Z,-0.49
2023-01-25T01:04:47.904Z,-0.49
2023-01-25T01:07:16.382Z,-0.48
2023-01-25T01:09:44.043Z,-0.48
2023-01-25T01:12:11.666Z,-0.48
2023-01-25T01:14:39.459Z,-0.48
2023-01-25T01:17:07.043Z,-0.47
2023-01-25T01:19:36.159Z,-0.47
2023-01-25T01:22:03.768Z,-0.47
2023-01-25T01:24:31.402Z,-0.47
2023-01-25T01:26:58.950Z,-0.46
2023-01-25T01:29:26.734Z,-0.46
2023-01-25T01:31:54.535Z,-0.45
2023-01-25T01:34:25.402Z,-0.46
2023-01-25T01:36:54.588Z,-0.45
2023-01-25T01:39:22.181Z,-0.45
2023-01-25T01:41:49.905Z,-0.45
2023-01-25T01:44:19.800Z,-0.45
2023-01-25T01:46:55.881Z,-0.44
2023-01-25T01:49:29.995Z,-0.45
2023-01-25T01:52:18.658Z,-0.45
2023-01-25T01:54:54.049Z,-0.46
2023-01-25T01:57:25.539Z,-0.45
2023-01-25T02:00:00.500Z,-0.45
2023-01-25T02:02:28.457Z,-0.45
2023-01-25T02:05:00.695Z,-0.44
2023-01-25T02:07:35.179Z,-0.44
2023-01-25T02:10:04.967Z,-0.44
2023-01-25T02:12:33.463Z,-0.43
2023-01-25T02:15:01.065Z,-0.44
2023-01-25T02:17:31.802Z,-0.44
2023-01-25T02:20:03.437Z,-0.42
2023-01-25T02:22:39.387Z,-0.40
2023-01-25T02:25:10.121Z,-0.42
2023-01-25T02:27:42.246Z,-0.40
2023-01-25T02:30:12.005Z,-0.42
2023-01-25T02:32:39.632Z,-0.40
2023-01-25T02:35:08.589Z,-0.39
2023-01-25T02:37:36.559Z,-0.39
2023-01-25T02:40:05.755Z,-0.38
2023-01-25T02:42:35.596Z,-0.36
2023-01-25T02:45:10.873Z,-0.35
2023-01-25T02:47:38.482Z,-0.33
2023-01-25T02:50:06.750Z,-0.33
2023-01-25T02:52:34.315Z,-0.33
2023-01-25T02:55:01.889Z,-0.32
2023-01-25T02:57:29.532Z,-0.32
2023-01-25T02:59:58.687Z,-0.30
2023-01-25T03:02:26.956Z,-0.30
2023-01-25T03:04:54.515Z,-0.28
2023-01-25T03:07:23.073Z,-0.29
2023-01-25T03:09:50.918Z,-0.28
2023-01-25T03:12:20.033Z,-0.27
2023-01-25T03:14:47.631Z,-0.26
2023-01-25T03:17:16.473Z,-0.25
2023-01-25T03:19:44.113Z,-0.25
2023-01-25T03:22:11.680Z,-0.25
2023-01-25T03:24:39.282Z,-0.25
2023-01-25T03:27:14.387Z,-0.25
2023-01-25T03:30:02.284Z,-0.23
2023-01-25T03:32:34.605Z,-0.23
2023-01-25T03:35:07.723Z,-0.24
2023-01-25T03:37:35.448Z,-0.23
2023-01-25T03:40:05.025Z,-0.23
2023-01-25T03:42:33.132Z,-0.23
2023-01-25T03:45:00.713Z,-0.21
2023-01-25T03:47:29.284Z,-0.22
2023-01-25T03:49:58.456Z,-0.21
2023-01-25T03:52:27.346Z,-0.20
2023-01-25T03:54:55.109Z,-0.20
2023-01-25T03:57:22.708Z,-0.21
2023-01-25T03:59:55.771Z,-0.21
2023-01-25T04:02:23.464Z,-0.20
2023-01-25T04:04:51.026Z,-0.20
2023-01-25T04:07:21.614Z,-0.21
2023-01-25T04:09:50.212Z,-0.21
2023-01-25T04:12:18.312Z,-0.23
2023-01-25T04:14:46.938Z,-0.25
2023-01-25T04:17:20.555Z,-0.25
2023-01-25T04:19:51.239Z,-0.25
2023-01-25T04:22:22.830Z,-0.29
2023-01-25T04:24:53.291Z,-0.30
2023-01-25T04:27:21.255Z,-0.30
2023-01-25T04:30:00.940Z,-0.31
2023-01-25T04:32:28.730Z,-0.32
2023-01-25T04:34:57.167Z,-0.32
2023-01-25T04:37:29.526Z,-0.33
2023-01-25T04:39:59.549Z,-0.33
2023-01-25T04:42:30.756Z,-0.34
2023-01-25T04:44:58.423Z,-0.34
2023-01-25T04:47:27.405Z,-0.36
2023-01-25T04:49:55.092Z,-0.37
2023-01-25T04:52:25.514Z,-0.38
2023-01-25T04:54:54.401Z,-0.38
2023-01-25T04:57:21.937Z,-0.39
2023-01-25T04:59:53.075Z,-0.40
2023-01-25T05:02:23.006Z,-0.40
2023-01-25T05:04:50.607Z,-0.41
2023-01-25T05:07:20.515Z,-0.44
2023-01-25T05:09:48.038Z,-0.42
2023-01-25T05:12:17.018Z,-0.44
2023-01-25T05:14:57.961Z,-0.46
2023-01-25T05:17:25.726Z,-0.46
2023-01-25T05:19:53.377Z,-0.48
2023-01-25T05:22:23.849Z,-0.50
2023-01-25T05:24:54.680Z,-0.51
2023-01-25T05:27:23.475Z,-0.52
2023-01-25T05:29:51.082Z,-0.53
2023-01-25T05:32:21.213Z,-0.54
2023-01-25T05:34:48.893Z,-0.57
2023-01-25T05:37:18.838Z,-0.55
2023-01-25T05:39:48.383Z,-0.55
2023-01-25T05:42:17.393Z,-0.55
2023-01-25T05:44:47.939Z,-0.55
2023-01-25T05:47:18.386Z,-0.55
2023-01-25T05:49:46.117Z,-0.57
2023-01-25T05:52:21.090Z,-0.57
2023-01-25T05:54:49.902Z,-0.57
2023-01-25T05:57:18.476Z,-0.59
2023-01-25T05:59:47.481Z,-0.58
2023-01-25T06:02:19.093Z,-0.60
2023-01-25T06:04:46.789Z,-0.58
2023-01-25T06:07:14.896Z,-0.58
2023-01-25T06:09:43.315Z,-0.57
2023-01-25T06:12:10.903Z,-0.57
2023-01-25T06:14:38.448Z,-0.55
2023-01-25T06:17:08.249Z,-0.55
2023-01-25T06:19:54.425Z,-0.55
2023-01-25T06:22:36.614Z,-0.57
2023-01-25T06:25:05.913Z,-0.58
2023-01-25T06:27:33.678Z,-0.59
2023-01-25T06:30:01.188Z,-0.59
2023-01-25T06:32:34.155Z,-0.61
2023-01-25T06:35:01.670Z,-0.61
2023-01-25T06:37:29.228Z,-0.62
2023-01-25T06:39:57.063Z,-0.63
2023-01-25T06:42:25.144Z,-0.63
2023-01-25T06:44:52.715Z,-0.63
2023-01-25T06:47:20.213Z,-0.64
2023-01-25T06:49:49.265Z,-0.64
2023-01-25T06:52:16.788Z,-0.65
2023-01-25T06:54:44.294Z,-0.65
2023-01-25T06:57:12.603Z,-0.67
2023-01-25T06:59:40.130Z,-0.68
2023-01-25T07:02:07.831Z,-0.70
2023-01-25T07:04:35.830Z,-0.70
2023-01-25T07:07:04.887Z,-0.71
2023-01-25T07:09:32.384Z,-0.72
2023-01-25T07:11:59.963Z,-0.75
2023-01-25T07:14:27.511Z,-0.77
2023-01-25T07:16:55.095Z,-0.78
2023-01-25T07:19:22.995Z,-0.78
2023-01-25T07:21:50.634Z,-0.78
2023-01-25T07:24:21.255Z,-0.80
2023-01-25T07:26:49.298Z,-0.80
2023-01-25T07:29:17.582Z,-0.81
2023-01-25T07:31:45.163Z,-0.80
2023-01-25T07:34:14.165Z,-0.80
2023-01-25T07:36:43.612Z,-0.78
2023-01-25T07:39:12.176Z,-0.80
2023-01-25T07:41:41.441Z,-0.80
2023-01-25T07:44:13.831Z,-0.81
2023-01-25T07:46:46.408Z,-0.82
2023-01-25T07:49:13.964Z,-0.83
2023-01-25T07:51:41.451Z,-0.83
2023-01-25T07:54:11.974Z,-0.84
2023-01-25T07:56:40.960Z,-0.84
2023-01-25T07:59:09.122Z,-0.85
2023-01-25T08:01:37.085Z,-0.86
2023-01-25T08:04:05.778Z,-0.85
2023-01-25T08:06:35.886Z,-0.86
2023-01-25T08:09:06.430Z,-0.87
2023-01-25T08:11:34.624Z,-0.87
2023-01-25T08:14:03.670Z,-0.88
2023-01-25T08:16:32.953Z,-0.89
2023-01-25T08:19:03.153Z,-0.89
2023-01-25T08:21:33.477Z,-0.89
2023-01-25T08:24:03.818Z,-0.89
2023-01-25T08:26:31.547Z,-0.90
2023-01-25T08:28:59.657Z,-0.91
2023-01-25T08:31:30.139Z,-0.90
2023-01-25T08:33:58.055Z,-0.89
2023-01-25T08:36:27.794Z,-0.90
2023-01-25T08:38:57.675Z,-0.89
2023-01-25T08:41:26.357Z,-0.89
2023-01-25T08:43:55.768Z,-0.88
2023-01-25T08:46:24.390Z,-0.89
2023-01-25T08:48:56.061Z,-0.89
2023-01-25T08:51:24.991Z,-0.88
2023-01-25T08:53:52.581Z,-0.88
2023-01-25T08:56:20.450Z,-0.87
2023-01-25T08:58:49.872Z,-0.87
2023-01-25T09:01:20.013Z,-0.87
2023-01-25T09:03:50.299Z,-0.87
2023-01-25T09:06:20.777Z,-0.87
2023-01-25T09:08:48.885Z,-0.87
2023-01-25T09:11:18.571Z,-0.87
2023-01-25T09:13:46.302Z,-0.87
2023-01-25T09:16:16.603Z,-0.88
2023-01-25T09:18:49.065Z,-0.88
2023-01-25T09:21:19.688Z,-0.89
2023-01-25T09:23:51.367Z,-0.90
2023-01-25T09:26:25.770Z,-0.91
2023-01-25T09:28:54.780Z,-0.90
2023-01-25T09:31:25.026Z,-0.92
2023-01-25T09:34:03.471Z,-0.93
2023-01-25T09:36:32.351Z,-0.92
2023-01-25T09:38:59.974Z,-0.93
2023-01-25T09:41:41.850Z,-0.93
2023-01-25T09:44:19.887Z,-0.93
2023-01-25T09:46:52.497Z,-0.93
2023-01-25T09:49:32.225Z,-0.93
2023-01-25T09:52:16.754Z,-0.90
2023-01-25T09:54:47.668Z,-0.91
2023-01-25T09:57:18.587Z,-0.91
2023-01-25T09:59:47.920Z,-0.92
2023-01-25T10:02:29.876Z,-0.93
2023-01-25T10:05:02.499Z,-0.93
2023-01-25T10:07:41.673Z,-0.92
2023-01-25T10:10:15.646Z,-0.95
2023-01-25T10:12:43.386Z,-0.95
2023-01-25T10:15:19.811Z,-0.93
2023-01-25T10:17:58.188Z,-0.94
2023-01-25T10:20:33.317Z,-0.92
2023-01-25T10:23:18.374Z,-0.92
2023-01-25T10:25:47.794Z,-0.92
2023-01-25T10:28:29.860Z,-0.92
2023-01-25T10:31:01.908Z,-0.90
2023-01-25T10:33:31.475Z,-0.90
2023-01-25T10:36:02.633Z,-0.89
2023-01-25T10:38:37.970Z,-0.89
2023-01-25T10:41:10.729Z,-0.90
2023-01-25T10:43:39.546Z,-0.92
2023-01-25T10:46:18.745Z,-0.91
2023-01-25T10:48:46.331Z,-0.88
2023-01-25T10:51:30.371Z,-0.87
2023-01-25T10:54:03.499Z,-0.85
2023-01-25T10:56:34.177Z,-0.84
2023-01-25T10:59:16.331Z,-0.84
2023-01-25T11:01:44.719Z,-0.87
2023-01-25T11:04:32.263Z,-0.84
2023-01-25T11:07:00.889Z,-0.84
2023-01-25T11:09:40.429Z,-0.84
2023-01-25T11:12:19.500Z,-0.85
2023-01-25T11:14:49.875Z,-0.86
2023-01-25T11:17:30.216Z,-0.87
2023-01-25T11:20:19.224Z,-0.89
2023-01-25T11:22:51.822Z,-0.91
2023-01-25T11:25:32.358Z,-0.92
2023-01-25T11:28:17.472Z,-0.92
2023-01-25T11:30:46.487Z,-0.90
2023-01-25T11:33:16.759Z,-0.89
2023-01-25T11:36:00.031Z,-0.89
2023-01-25T11:38:27.931Z,-0.86
2023-01-25T11:41:06.917Z,-0.86
2023-01-25T11:43:48.747Z,-0.88
2023-01-25T11:46:28.736Z,-0.87
2023-01-25T11:49:06.446Z,-0.85
2023-01-25T11:51:41.389Z,-0.84
2023-01-25T11:54:30.651Z,-0.82
2023-01-25T11:57:01.811Z,-0.82
2023-01-25T11:59:51.984Z,-0.81
2023-01-25T12:02:52.503Z,-0.80
2023-01-25T12:05:29.601Z,-0.78
2023-01-25T12:08:10.315Z,-0.77
2023-01-25T12:10:44.344Z,-0.76
2023-01-25T12:13:22.241Z,-0.76
2023-01-25T12:16:06.792Z,-0.78
2023-01-25T12:19:03.757Z,-0.79
2023-01-25T12:21:47.123Z,-0.81
2023-01-25T12:24:27.129Z,-0.82
2023-01-25T12:27:08.880Z,-0.81
2023-01-25T12:29:44.972Z,-0.80
2023-01-25T12:32:19.211Z,-0.79
2023-01-25T12:34:51.279Z,-0.78
2023-01-25T12:37:23.083Z,-0.78
2023-01-25T12:39:56.947Z,-0.78
2023-01-25T12:42:30.376Z,-0.78
2023-01-25T12:45:05.536Z,-0.79
2023-01-25T12:47:40.562Z,-0.78
2023-01-25T12:50:17.939Z,-0.80
2023-01-25T12:52:50.272Z,-0.80
2023-01-25T12:55:19.474Z,-0.81
2023-01-25T12:57:56.985Z,-0.82
2023-01-25T13:00:35.502Z,-0.81
2023-01-25T13:03:19.056Z,-0.80
2023-01-25T13:05:54.215Z,-0.82
2023-01-25T13:08:34.191Z,-0.84
2023-01-25T13:11:14.209Z,-0.85
2023-01-25T13:13:41.873Z,-0.84
2023-01-25T13:16:41.233Z,-0.84
2023-01-25T13:19:21.024Z,-0.84
2023-01-25T13:21:50.619Z,-0.83
2023-01-25T13:24:24.947Z,-0.82
2023-01-25T13:27:01.568Z,-0.82
2023-01-25T13:30:00.279Z,-0.81
2023-01-25T13:32:58.040Z,-0.82
2023-01-25T13:35:36.918Z,-0.82
2023-01-25T13:38:21.531Z,-0.82
2023-01-25T13:41:04.271Z,-0.84
2023-01-25T13:43:31.950Z,-0.84
2023-01-25T13:45:59.536Z,-0.85
2023-01-25T13:48:32.333Z,-0.85
2023-01-25T13:51:04.440Z,-0.85
2023-01-25T13:53:35.191Z,-0.85
2023-01-25T13:56:03.912Z,-0.85
2023-01-25T13:58:33.664Z,-0.86
2023-01-25T14:01:06.369Z,-0.87
2023-01-25T14:03:38.283Z,-0.88
2023-01-25T14:06:07.768Z,-0.87
2023-01-25T14:08:35.445Z,-0.88
2023-01-25T14:11:03.077Z,-0.89
2023-01-25T14:13:30.629Z,-0.89
2023-01-25T14:15:59.983Z,-0.89
2023-01-25T14:18:30.906Z,-0.90
2023-01-25T14:21:15.905Z,-0.93
2023-01-25T14:23:43.510Z,-0.94
2023-01-25T14:26:28.983Z,-0.93
2023-01-25T14:29:02.362Z,-0.94
2023-01-25T14:31:34.280Z,-0.96
2023-01-25T14:34:04.215Z,-0.95
2023-01-25T14:36:35.192Z,-0.94
2023-01-25T14:39:04.853Z,-0.95
2023-01-25T14:41:35.233Z,-0.97
2023-01-25T14:44:04.727Z,-1.00
2023-01-25T14:46:33.684Z,-1.01
2023-01-25T14:49:25.510Z,-1.02
2023-01-25T14:52:03.140Z,-1.05
2023-01-25T14:54:33.578Z,-1.03
2023-01-25T14:57:04.149Z,-1.04
2023-01-25T14:59:36.697Z,-1.04
2023-01-25T15:02:15.881Z,-1.04
2023-01-25T15:04:53.806Z,-1.05
2023-01-25T15:07:37.653Z,-1.04
2023-01-25T15:10:16.716Z,-1.08
2023-01-25T15:12:58.510Z,-1.05
2023-01-25T15:15:34.016Z,-1.08
2023-01-25T15:18:02.130Z,-1.10
2023-01-25T15:20:32.615Z,-1.09
2023-01-25T15:23:04.665Z,-1.10
2023-01-25T15:25:32.206Z,-1.09
2023-01-25T15:27:59.764Z,-1.09
2023-01-25T15:30:27.669Z,-1.10
2023-01-25T15:33:03.289Z,-1.13
2023-01-25T15:35:30.916Z,-1.15
2023-01-25T15:37:58.584Z,-1.16
2023-01-25T15:40:27.538Z,-1.20
2023-01-25T15:42:55.670Z,-1.22
2023-01-25T15:45:23.254Z,-1.24
2023-01-25T15:47:50.804Z,-1.24
2023-01-25T15:50:19.757Z,-1.24
2023-01-25T15:52:48.376Z,-1.25
2023-01-25T15:55:15.976Z,-1.26
2023-01-25T15:57:46.811Z,-1.26
2023-01-25T16:00:20.119Z,-1.25
2023-01-25T16:02:48.134Z,-1.26
2023-01-25T16:05:16.008Z,-1.27
2023-01-25T16:07:45.102Z,-1.26
2023-01-25T16:10:22.805Z,-1.28
2023-01-25T16:12:51.938Z,-1.28
2023-01-25T16:15:19.509Z,-1.29
2023-01-25T16:17:47.056Z,-1.31
2023-01-25T16:20:19.126Z,-1.32
2023-01-25T16:22:46.820Z,-1.33
2023-01-25T16:25:14.538Z,-1.34
2023-01-25T16:27:42.064Z,-1.32
2023-01-25T16:30:20.125Z,-1.31
2023-01-25T16:32:50.091Z,-1.33
2023-01-25T16:35:17.652Z,-1.32
2023-01-25T16:37:45.406Z,-1.33
2023-01-25T16:40:24.393Z,-1.31
2023-01-25T16:42:52.524Z,-1.31
2023-01-25T16:45:21.621Z,-1.31
2023-01-25T16:47:49.419Z,-1.30
2023-01-25T16:50:18.772Z,-1.33
2023-01-25T16:52:49.148Z,-1.30
2023-01-25T16:55:17.402Z,-1.31
2023-01-25T16:57:49.519Z,-1.32
2023-01-25T17:00:17.633Z,-1.33
2023-01-25T17:02:58.558Z,-1.35
2023-01-25T17:05:28.982Z,-1.35
2023-01-25T17:07:57.009Z,-1.36
2023-01-25T17:10:25.093Z,-1.37
2023-01-25T17:12:52.671Z,-1.37
2023-01-25T17:15:20.792Z,-1.36
2023-01-25T17:17:50.820Z,-1.35
2023-01-25T17:20:18.976Z,-1.34
2023-01-25T17:22:50.975Z,-1.34
2023-01-25T17:25:19.158Z,-1.34
2023-01-25T17:27:47.013Z,-1.34
2023-01-25T17:30:15.384Z,-1.36
2023-01-25T17:32:42.951Z,-1.37
2023-01-25T17:35:11.944Z,-1.38
2023-01-25T17:37:41.039Z,-1.39
2023-01-25T17:40:11.287Z,-1.40
2023-01-25T17:42:39.095Z,-1.41
2023-01-25T17:45:08.328Z,-1.41
2023-01-25T17:47:36.196Z,-1.39
2023-01-25T17:50:03.947Z,-1.41
2023-01-25T17:52:32.839Z,-1.42
2023-01-25T17:55:01.053Z,-1.44
2023-01-25T17:57:31.566Z,-1.44
2023-01-25T17:59:59.933Z,-1.45
2023-01-25T18:02:28.222Z,-1.46
2023-01-25T18:04:57.786Z,-1.48
2023-01-25T18:07:25.543Z,-1.48
2023-01-25T18:09:54.415Z,-1.49
2023-01-25T18:12:22.058Z,-1.49
2023-01-25T18:14:49.650Z,-1.50
2023-01-25T18:17:17.201Z,-1.50
2023-01-25T18:19:45.940Z,-1.49
2023-01-25T18:22:14.696Z,-1.50
2023-01-25T18:24:44.738Z,-1.49
2023-01-25T18:27:19.920Z,-1.49
2023-01-25T18:29:55.145Z,-1.49
2023-01-25T18:32:22.732Z,-1.49
2023-01-25T18:34:50.399Z,-1.48
2023-01-25T18:37:20.959Z,-1.47
2023-01-25T18:39:50.132Z,-1.48
2023-01-25T18:42:19.137Z,-1.47
2023-01-25T18:44:48.358Z,-1.47
2023-01-25T18:47:18.594Z,-1.44
2023-01-25T18:49:46.655Z,-1.44
2023-01-25T18:52:14.316Z,-1.43
2023-01-25T18:54:41.826Z,-1.43
2023-01-25T18:57:10.588Z,-1.43
2023-01-25T18:59:39.811Z,-1.41
2023-01-25T19:02:08.074Z,-1.41
2023-01-25T19:04:35.609Z,-1.40
2023-01-25T19:07:03.205Z,-1.39
2023-01-25T19:09:30.800Z,-1.40
2023-01-25T19:11:58.991Z,-1.39
2023-01-25T19:14:26.733Z,-1.39
2023-01-25T19:16:55.597Z,-1.38
2023-01-25T19:19:23.574Z,-1.40
2023-01-25T19:21:51.089Z,-1.39
2023-01-25T19:24:19.708Z,-1.40
2023-01-25T19:26:48.275Z,-1.41
2023-01-25T19:29:16.661Z,-1.42
2023-01-25T19:31:44.437Z,-1.43
2023-01-25T19:34:13.418Z,-1.44
2023-01-25T19:36:45.663Z,-1.46
2023-01-25T19:39:13.251Z,-1.48
2023-01-25T19:41:40.862Z,-1.48
2023-01-25T19:44:11.855Z,-1.49
2023-01-25T19:46:39.462Z,-1.49
2023-01-25T19:49:09.220Z,-1.49
2023-01-25T19:51:41.378Z,-1.51
2023-01-25T19:54:11.832Z,-1.50
2023-01-25T19:56:41.267Z,-1.50
2023-01-25T19:59:11.762Z,-1.49
2023-01-25T20:01:43.828Z,-1.51
2023-01-25T20:04:12.492Z,-1.51
2023-01-25T20:06:42.020Z,-1.51
2023-01-25T20:09:12.616Z,-1.53
2023-01-25T20:11:40.236Z,-1.54
2023-01-25T20:14:08.415Z,-1.56
2023-01-25T20:16:36.491Z,-1.57
2023-01-25T20:19:04.893Z,-1.58
2023-01-25T20:21:33.780Z,-1.60
2023-01-25T20:24:06.045Z,-1.61
2023-01-25T20:26:36.593Z,-1.61
2023-01-25T20:29:04.473Z,-1.64
2023-01-25T20:31:34.142Z,-1.64
2023-01-25T20:34:03.670Z,-1.66
2023-01-25T20:36:31.832Z,-1.67
2023-01-25T20:38:59.619Z,-1.65
2023-01-25T20:41:28.558Z,-1.66
2023-01-25T20:44:00.137Z,-1.66
2023-01-25T20:46:29.406Z,-1.65
2023-01-25T20:48:57.104Z,-1.66
2023-01-25T20:51:24.601Z,-1.66
2023-01-25T20:53:54.460Z,-1.67
2023-01-25T20:56:22.973Z,-1.68
2023-01-25T20:58:52.703Z,-1.71
2023-01-25T21:01:21.711Z,-1.73
2023-01-25T21:03:50.136Z,-1.74
2023-01-25T21:06:18.285Z,-1.74
2023-01-25T21:08:45.787Z,-1.75
2023-01-25T21:11:15.141Z,-1.77
2023-01-25T21:13:43.077Z,-1.78
2023-01-25T21:16:14.925Z,-1.80
2023-01-25T21:18:44.066Z,-1.84
2023-01-25T21:21:13.371Z,-1.87
2023-01-25T21:23:44.714Z,-1.89
2023-01-25T21:26:15.934Z,-1.91
2023-01-25T21:28:43.532Z,-1.93
2023-01-25T21:31:14.769Z,-1.96
2023-01-25T21:33:43.128Z,-1.98
2023-01-25T21:36:15.162Z,-1.96
2023-01-25T21:38:43.986Z,-1.98
2023-01-25T21:41:13.370Z,-1.98
2023-01-25T21:43:58.538Z,-2.01
2023-01-25T21:46:29.123Z,-2.03
2023-01-25T21:49:15.699Z,-2.04
2023-01-25T21:51:49.474Z,-2.06
2023-01-25T21:54:18.778Z,-2.09
2023-01-25T21:56:47.392Z,-2.11
2023-01-25T21:59:15.042Z,-2.12
2023-01-25T22:01:44.426Z,-2.14
2023-01-25T22:04:14.644Z,-2.16
2023-01-25T22:06:43.050Z,-2.18
2023-01-25T22:09:11.027Z,-2.19
2023-01-25T22:11:38.527Z,-2.20
2023-01-25T22:14:06.468Z,-2.20
2023-01-25T22:16:34.054Z,-2.20
2023-01-25T22:19:02.935Z,-2.21
2023-01-25T22:21:32.469Z,-2.20
2023-01-25T22:24:00.925Z,-2.20
2023-01-25T22:26:33.770Z,-2.19
2023-01-25T22:29:01.461Z,-2.20
2023-01-25T22:31:30.609Z,-2.19
2023-01-25T22:33:59.748Z,-2.20
2023-01-25T22:36:30.329Z,-2.21
2023-01-25T22:39:00.075Z,-2.21
2023-01-25T22:41:29.404Z,-2.24
2023-01-25T22:43:56.960Z,-2.27
2023-01-25T22:46:26.665Z,-2.29
2023-01-25T22:48:54.195Z,-2.31
2023-01-25T22:51:25.492Z,-2.31
2023-01-25T22:53:54.714Z,-2.29
2023-01-25T22:56:24.937Z,-2.29
2023-01-25T22:58:53.262Z,-2.29
2023-01-25T23:01:22.952Z,-2.27
2023-01-25T23:03:51.596Z,-2.29
2023-01-25T23:06:21.573Z,-2.27
2023-01-25T23:08:49.948Z,-2.28
2023-01-25T23:11:20.592Z,-2.25
2023-01-25T23:14:10.015Z,-2.24
2023-01-25T23:16:37.665Z,-2.26
2023-01-25T23:19:05.044Z,-2.24
2023-01-25T23:21:33.017Z,-2.23
2023-01-25T23:24:01.585Z,-2.22
2023-01-25T23:26:37.444Z,-2.20
2023-01-25T23:29:07.361Z,-2.19
2023-01-25T23:31:35.041Z,-2.19
2023-01-25T23:34:04.675Z,-2.17
2023-01-25T23:36:34.391Z,-2.14
2023-01-25T23:39:02.460Z,-2.14
2023-01-25T23:41:31.858Z,-2.15
2023-01-25T23:43:59.720Z,-2.15
2023-01-25T23:46:27.524Z,-2.16
2023-01-25T23:48:55.219Z,-2.18
2023-01-25T23:51:22.927Z,-2.17
2023-01-25T23:53:50.521Z,-2.17
2023-01-25T23:56:20.268Z,-2.17
2023-01-25T23:58:49.774Z,-2.16
